Time;durP1;ratioP1;P1;durP2;ratioP2;P2;SDS_P1;SDS_P2;PMS_P1;PMS_P2;Temp;Humidity;BMP_temperature;BMP_pressure;BME280_temperature;BME280_humidity;BME280_pressure;Samples;Min_cycle;Max_cycle;Signal;HPM_P1;HPM_P2
2022/12/09 04:01:55;;;;;;;;;;;-2.00;99.90;;;;;;5502325;23;19927;-75
2022/12/09 04:04:22;;;;;;;;;;;-2.00;99.90;;;;;;4962170;28;19926;-76
2022/12/09 04:06:50;;;;;;;;;;;-2.00;99.90;;;;;;4967229;28;19926;-75
2022/12/09 04:09:17;;;;;;;;;;;-2.00;99.90;;;;;;4963365;28;19958;-75
2022/12/09 04:11:43;;;;;;;;;;;-2.00;99.90;;;;;;4963593;28;19975;-73
2022/12/09 04:14:10;;;;;;;;;;;-2.00;99.90;;;;;;4956709;28;19962;-75
2022/12/09 04:16:38;;;;;;;;;;;-1.90;99.90;;;;;;4962891;28;19927;-74
2022/12/09 04:19:08;;;;;;;;;;;-1.90;99.90;;;;;;4956353;28;19927;-75
2022/12/09 04:21:34;;;;;;;;;;;-1.90;99.90;;;;;;4964366;28;19998;-75
2022/12/09 04:24:01;;;;;;;;;;;-1.90;99.90;;;;;;4964491;28;19926;-75
2022/12/09 04:26:28;;;;;;;;;;;-1.90;99.90;;;;;;4960124;28;19942;-75
2022/12/09 04:28:55;;;;;;;;;;;-2.00;99.90;;;;;;4966234;28;19933;-74
2022/12/09 04:31:21;;;;;;;;;;;-2.00;99.90;;;;;;4962653;28;19986;-75
2022/12/09 04:33:48;;;;;;;;;;;-2.10;99.90;;;;;;4962306;28;20344;-75
2022/12/09 04:36:18;;;;;;;;;;;-2.10;99.90;;;;;;4963479;28;19934;-75
2022/12/09 04:38:45;;;;;;;;;;;-2.20;99.90;;;;;;4962480;28;19930;-74
2022/12/09 04:41:12;;;;;;;;;;;-2.10;99.90;;;;;;4965624;28;19927;-75
2022/12/09 04:43:39;;;;;;;;;;;-2.20;99.90;;;;;;4962858;28;20007;-75
2022/12/09 04:46:06;;;;;;;;;;;-2.10;99.90;;;;;;4958211;28;19976;-76
2022/12/09 04:48:33;;;;;;;;;;;-2.10;99.90;;;;;;4962216;28;19926;-75
2022/12/09 04:51:00;;;;;;;;;;;-2.20;99.90;;;;;;4954725;28;20389;-75
2022/12/09 04:53:28;;;;;;;;;;;-2.20;99.90;;;;;;4966146;28;19933;-75
2022/12/09 04:55:59;;;;;;;;;;;-2.20;99.90;;;;;;4955138;28;19930;-75
2022/12/09 04:58:25;;;;;;;;;;;-2.20;99.90;;;;;;4962531;28;19930;-74
2022/12/09 05:00:54;;;;;;;;;;;-2.20;99.90;;;;;;4975005;28;19934;-75
2022/12/09 05:03:21;;;;;;;;;;;-2.20;99.90;;;;;;4962693;28;19930;-75
2022/12/09 05:05:47;;;;;;;;;;;-2.20;99.90;;;;;;4949864;28;19982;-75
2022/12/09 05:08:15;;;;;;;;;;;-2.20;99.90;;;;;;4965492;28;19926;-72
2022/12/09 05:10:46;;;;;;;;;;;-2.10;99.90;;;;;;4959369;28;19930;-74
2022/12/09 05:13:13;;;;;;;;;;;-2.00;99.90;;;;;;4953194;28;19934;-75
2022/12/09 05:15:40;;;;;;;;;;;-2.00;99.90;;;;;;4965094;28;19926;-75
2022/12/09 05:18:07;;;;;;;;;;;-1.90;99.90;;;;;;4962766;28;19926;-72
2022/12/09 05:20:33;;;;;;;;;;;-1.80;99.90;;;;;;4964723;28;19986;-75
2022/12/09 05:23:00;;;;;;;;;;;-1.70;99.90;;;;;;4962352;28;19937;-76
2022/12/09 05:25:27;;;;;;;;;;;-1.60;99.90;;;;;;4962410;28;19986;-76
2022/12/09 05:27:55;;;;;;;;;;;-1.50;99.90;;;;;;4952501;28;19927;-73
2022/12/09 05:30:22;;;;;;;;;;;-1.40;99.90;;;;;;4947493;28;19927;-75
2022/12/09 05:32:49;;;;;;;;;;;-1.30;99.90;;;;;;4954116;28;19942;-75
2022/12/09 05:35:15;;;;;;;;;;;-1.20;99.90;;;;;;4965045;28;20293;-75
2022/12/09 05:37:42;;;;;;;;;;;-1.10;99.90;;;;;;4967149;28;19969;-74
2022/12/09 05:40:10;;;;;;;;;;;-1.10;99.90;;;;;;4953951;28;19930;-75
2022/12/09 05:42:37;;;;;;;;;;;-1.00;99.90;;;;;;4957507;28;20349;-75
2022/12/09 05:45:06;;;;;;;;;;;-0.90;99.90;;;;;;4957389;28;20415;-75
2022/12/09 05:47:33;;;;;;;;;;;-0.90;99.90;;;;;;4954044;28;19930;-75
2022/12/09 05:49:59;;;;;;;;;;;-0.80;99.90;;;;;;4961335;28;19927;-75
2022/12/09 05:52:26;;;;;;;;;;;-0.80;99.90;;;;;;4961141;28;19950;-76
2022/12/09 05:54:53;;;;;;;;;;;-0.70;99.90;;;;;;4962244;28;19926;-75
2022/12/09 05:57:20;;;;;;;;;;;-0.60;99.90;;;;;;4965155;28;19926;-75
2022/12/09 05:59:46;;;;;;;;;;;-0.60;99.90;;;;;;4963145;28;19926;-75
2022/12/09 06:02:15;;;;;;;;;;;-0.60;99.90;;;;;;4957538;28;20289;-75
2022/12/09 06:04:42;;;;;;;;;;;-0.60;99.90;;;;;;4953674;28;19930;-75
2022/12/09 06:07:08;;;;;;;;;;;-0.60;99.90;;;;;;4963016;28;19981;-75
2022/12/09 06:09:35;;;;;;;;;;;-0.60;99.90;;;;;;4961809;28;19930;-75
2022/12/09 06:12:03;;;;;;;;;;;-0.60;99.90;;;;;;4959434;28;19964;-76
2022/12/09 06:14:30;;;;;;;;;;;-0.60;99.90;;;;;;4943248;28;19934;-75
2022/12/09 06:16:56;;;;;;;;;;;-0.60;99.90;;;;;;4952972;28;19934;-72
2022/12/09 06:19:25;;;;;;;;;;;-0.60;99.90;;;;;;4951668;28;20013;-76
2022/12/09 06:21:51;;;;;;;;;;;-0.60;99.90;;;;;;4968774;28;19937;-75
2022/12/09 06:24:18;;;;;;;;;;;-0.60;99.90;;;;;;4955170;28;20369;-75
2022/12/09 06:26:45;;;;;;;;;;;-0.70;99.90;;;;;;4960149;28;20345;-75
2022/12/09 06:29:12;;;;;;;;;;;-0.70;99.90;;;;;;4957080;28;19934;-75
2022/12/09 06:31:40;;;;;;;;;;;-0.70;99.90;;;;;;4959838;28;20282;-76
2022/12/09 06:34:07;;;;;;;;;;;-0.70;99.90;;;;;;4960062;28;19927;-76
2022/12/09 06:36:35;;;;;;;;;;;-0.70;99.90;;;;;;4953777;28;20376;-75
2022/12/09 06:39:02;;;;;;;;;;;-0.70;99.90;;;;;;4954259;28;19947;-75
2022/12/09 06:41:29;;;;;;;;;;;-0.70;99.90;;;;;;4957275;28;19934;-75
2022/12/09 06:43:56;;;;;;;;;;;-0.70;99.90;;;;;;4963394;28;19926;-75
2022/12/09 06:46:23;;;;;;;;;;;-0.80;99.90;;;;;;4961254;28;19926;-76
2022/12/09 06:48:51;;;;;;;;;;;-0.90;99.90;;;;;;4959291;28;19926;-74
2022/12/09 06:51:18;;;;;;;;;;;-0.90;99.90;;;;;;4958614;28;19926;-75
2022/12/09 06:53:47;;;;;;;;;;;-1.00;99.90;;;;;;4959059;28;19927;-75
2022/12/09 06:56:14;;;;;;;;;;;-1.00;99.90;;;;;;4957709;28;19930;-75
2022/12/09 06:58:41;;;;;;;;;;;-1.10;99.90;;;;;;4958404;28;19994;-75
2022/12/09 07:01:12;;;;;;;;;;;-1.10;99.90;;;;;;4958846;28;19931;-75
2022/12/09 07:03:39;;;;;;;;;;;-1.20;99.90;;;;;;4959136;28;20304;-74
2022/12/09 07:06:06;;;;;;;;;;;-1.20;99.90;;;;;;4959137;28;19969;-74
2022/12/09 07:08:33;;;;;;;;;;;-1.20;99.90;;;;;;4962241;28;20469;-74
2022/12/09 07:11:01;;;;;;;;;;;-1.20;99.90;;;;;;4962587;28;19926;-74
2022/12/09 07:13:28;;;;;;;;;;;-1.30;99.90;;;;;;4957531;28;19926;-73
2022/12/09 07:15:54;;;;;;;;;;;-1.20;99.90;;;;;;4959140;28;19935;-73
2022/12/09 07:18:21;;;;;;;;;;;-1.20;99.90;;;;;;4959112;28;19930;-72
2022/12/09 07:20:48;;;;;;;;;;;-1.30;99.90;;;;;;4966691;28;19934;-74
2022/12/09 07:23:15;;;;;;;;;;;-1.40;99.90;;;;;;4963330;28;20033;-75
2022/12/09 07:25:41;;;;;;;;;;;-1.50;99.90;;;;;;4947628;28;19934;-73
2022/12/09 07:28:10;;;;;;;;;;;-1.50;99.90;;;;;;4956801;28;20357;-73
2022/12/09 07:30:37;;;;;;;;;;;-1.60;99.90;;;;;;4960613;28;19926;-73
2022/12/09 07:33:04;;;;;;;;;;;-1.70;99.90;;;;;;4959048;28;19930;-74
2022/12/09 07:35:31;;;;;;;;;;;-1.70;99.90;;;;;;4961576;28;19933;-74
2022/12/09 07:37:57;;;;;;;;;;;-1.80;99.90;;;;;;4958563;28;19934;-74
2022/12/09 07:40:24;;;;;;;;;;;-1.80;99.90;;;;;;4959650;28;20397;-74
2022/12/09 07:42:51;;;;;;;;;;;-1.80;99.90;;;;;;4961906;28;19926;-73
2022/12/09 07:45:21;;;;;;;;;;;-1.80;99.90;;;;;;4958181;28;19934;-75
2022/12/09 07:47:48;;;;;;;;;;;-1.80;99.90;;;;;;4962514;28;19934;-73
2022/12/09 07:50:15;;;;;;;;;;;-1.70;99.90;;;;;;4957329;28;19938;-74
2022/12/09 07:52:42;;;;;;;;;;;-1.70;99.90;;;;;;4958095;28;19934;-75
2022/12/09 07:55:09;;;;;;;;;;;-1.60;99.90;;;;;;4957612;28;19927;-76
2022/12/09 07:57:36;;;;;;;;;;;-1.60;99.90;;;;;;4961842;28;19926;-75
2022/12/09 08:00:04;;;;;;;;;;;-1.50;99.90;;;;;;4947253;28;20463;-75
2022/12/09 08:02:39;;;;;;;;;;;-1.40;99.90;;;;;;4961526;28;19934;-75
2022/12/09 08:05:07;;;;;;;;;;;-1.30;99.90;;;;;;4954189;28;19944;-75
2022/12/09 08:07:33;;;;;;;;;;;-1.20;99.90;;;;;;4959694;28;19937;-74
2022/12/09 08:10:00;;;;;;;;;;;-1.10;99.90;;;;;;4961496;28;19926;-74
2022/12/09 08:12:27;;;;;;;;;;;-1.00;99.90;;;;;;4957322;28;20308;-75
2022/12/09 08:14:54;;;;;;;;;;;-0.90;99.90;;;;;;4961624;28;19930;-76
2022/12/09 08:17:20;;;;;;;;;;;-0.80;99.90;;;;;;4958323;28;19926;-74
2022/12/09 08:19:49;;;;;;;;;;;-0.70;99.90;;;;;;4959027;28;19942;-73
2022/12/09 08:22:16;;;;;;;;;;;-0.60;99.90;;;;;;4960823;28;19949;-76
2022/12/09 08:24:43;;;;;;;;;;;-0.40;99.90;;;;;;4962522;28;19933;-75
2022/12/09 08:27:09;;;;;;;;;;;-0.30;99.90;;;;;;4960209;28;19927;-75
2022/12/09 08:29:36;;;;;;;;;;;-0.20;99.90;;;;;;4960050;28;19973;-76
2022/12/09 08:32:03;;;;;;;;;;;-0.20;99.90;;;;;;4958304;28;19998;-75
2022/12/09 08:34:30;;;;;;;;;;;-0.20;99.90;;;;;;4958409;28;19930;-75
2022/12/09 08:36:58;;;;;;;;;;;-0.10;99.90;;;;;;4960154;28;19926;-76
2022/12/09 08:39:25;;;;;;;;;;;-0.10;99.90;;;;;;4956939;28;19930;-75
2022/12/09 08:41:51;;;;;;;;;;;0.10;99.90;;;;;;4961028;28;20344;-75
2022/12/09 08:44:19;;;;;;;;;;;0.10;99.90;;;;;;4957730;28;19927;-76
2022/12/09 08:46:47;;;;;;;;;;;0.20;99.90;;;;;;4957279;28;19926;-75
2022/12/09 08:49:16;;;;;;;;;;;0.20;99.90;;;;;;4960942;28;19930;-76
2022/12/09 08:51:44;;;;;;;;;;;0.30;99.90;;;;;;4961618;28;19934;-75
2022/12/09 08:54:12;;;;;;;;;;;0.40;99.90;;;;;;4963611;28;19981;-75
2022/12/09 08:56:39;;;;;;;;;;;0.50;99.90;;;;;;4959365;28;19942;-75
2022/12/09 08:59:05;;;;;;;;;;;0.60;99.90;;;;;;4950493;28;19957;-74
2022/12/09 09:01:33;;;;;;;;;;;0.70;99.90;;;;;;4963008;28;20337;-75
2022/12/09 09:04:00;;;;;;;;;;;0.70;99.90;;;;;;4959714;28;20300;-76
2022/12/09 09:06:27;;;;;;;;;;;0.70;99.90;;;;;;4959965;28;19962;-77
2022/12/09 09:08:55;;;;;;;;;;;0.80;99.90;;;;;;4950177;28;20361;-76
2022/12/09 09:11:24;;;;;;;;;;;0.90;99.90;;;;;;4962246;28;20358;-75
2022/12/09 09:13:51;;;;;;;;;;;1.00;99.90;;;;;;4961150;28;19926;-75
2022/12/09 09:16:19;;;;;;;;;;;1.10;99.90;;;;;;4961246;28;19926;-76
2022/12/09 09:18:46;;;;;;;;;;;1.30;99.90;;;;;;4954873;28;19933;-76
2022/12/09 09:21:14;;;;;;;;;;;1.50;99.90;;;;;;4961617;28;19926;-76
2022/12/09 09:23:41;;;;;;;;;;;1.70;99.90;;;;;;4960285;28;19938;-76
2022/12/09 09:26:09;;;;;;;;;;;1.90;99.90;;;;;;4963071;28;19926;-75
2022/12/09 09:28:37;;;;;;;;;;;2.10;99.90;;;;;;4958732;28;19937;-75
2022/12/09 09:31:05;;;;;;;;;;;2.10;99.90;;;;;;4962044;28;19926;-74
2022/12/09 09:33:32;;;;;;;;;;;2.10;99.90;;;;;;4963565;28;19926;-74
2022/12/09 09:36:00;;;;;;;;;;;2.20;99.90;;;;;;4961761;28;19926;-75
2022/12/09 09:38:27;;;;;;;;;;;2.10;99.90;;;;;;4957261;28;19926;-74
2022/12/09 09:40:55;;;;;;;;;;;2.10;99.90;;;;;;4959266;28;19946;-75
2022/12/09 09:43:25;;;;;;;;;;;2.20;99.90;;;;;;4947620;28;19930;-75
2022/12/09 09:45:54;;;;;;;;;;;2.30;99.90;;;;;;4962858;28;19926;-75
2022/12/09 09:48:22;;;;;;;;;;;2.50;99.90;;;;;;4953011;28;20345;-74
2022/12/09 09:50:51;;;;;;;;;;;2.70;99.90;;;;;;4942916;28;19930;-74
2022/12/09 09:53:21;;;;;;;;;;;2.90;99.90;;;;;;4957708;28;19933;-75
2022/12/09 09:55:49;;;;;;;;;;;3.00;99.90;;;;;;4955373;28;19942;-74
2022/12/09 09:58:17;;;;;;;;;;;3.00;99.90;;;;;;4963720;28;19926;-75
2022/12/09 10:00:49;;;;;;;;;;;3.00;99.90;;;;;;4963956;28;20408;-74
2022/12/09 10:03:23;;;;;;;;;;;3.10;99.90;;;;;;4965307;28;19930;-75
2022/12/09 10:05:52;;;;;;;;;;;3.40;99.90;;;;;;4965233;28;19926;-74
2022/12/09 10:08:25;;;;;;;;;;;4.00;99.90;;;;;;4956447;28;19962;-74
2022/12/09 10:10:57;;;;;;;;;;;4.40;99.90;;;;;;4958732;28;20012;-74
2022/12/09 10:13:29;;;;;;;;;;;4.70;99.90;;;;;;4955612;28;19961;-74
2022/12/09 10:16:00;;;;;;;;;;;4.80;99.90;;;;;;4962101;28;19926;-76
2022/12/09 10:18:31;;;;;;;;;;;5.10;99.90;;;;;;4957769;28;19978;-75
2022/12/09 10:20:58;;;;;;;;;;;6.80;99.90;;;;;;4957996;28;19937;-74
2022/12/09 10:23:25;;;;;;;;;;;9.80;99.90;;;;;;4955419;28;19931;-74
2022/12/09 10:25:53;;;;;;;;;;;11.80;99.90;;;;;;4959992;28;19930;-74
2022/12/09 10:28:22;;;;;;;;;;;13.30;99.90;;;;;;4958359;28;20456;-73
2022/12/09 10:30:49;;;;;;;;;;;12.20;99.90;;;;;;4957901;28;19933;-76
2022/12/09 10:33:17;;;;;;;;;;;11.50;99.90;;;;;;4958030;28;19934;-75
2022/12/09 10:35:46;;;;;;;;;;;12.50;99.90;;;;;;4961115;28;19933;-75
2022/12/09 10:38:14;;;;;;;;;;;14.00;99.90;;;;;;4960504;28;20037;-74
2022/12/09 10:40:48;;;;;;;;;;;15.20;99.90;;;;;;4961132;28;20026;-76
2022/12/09 10:43:33;;;;;;;;;;;15.40;99.90;;;;;;4959215;28;20542;-76
2022/12/09 10:46:01;;;;;;;;;;;15.20;99.90;;;;;;4948098;28;19929;-76
2022/12/09 10:48:29;;;;;;;;;;;14.20;99.90;;;;;;4959736;28;19930;-75
2022/12/09 10:50:58;;;;;;;;;;;14.50;99.90;;;;;;4959987;28;19937;-76
2022/12/09 10:53:25;;;;;;;;;;;15.40;99.90;;;;;;4956800;28;20357;-77
2022/12/09 10:55:54;;;;;;;;;;;16.50;99.90;;;;;;4950326;28;19930;-75
2022/12/09 10:58:22;;;;;;;;;;;17.00;99.90;;;;;;4954971;28;19935;-73
2022/12/09 11:01:00;;;;;;;;;;;17.30;99.90;;;;;;4960867;28;19926;-72
2022/12/09 11:03:28;;;;;;;;;;;16.80;99.90;;;;;;4956788;28;19933;-73
2022/12/09 11:05:56;;;;;;;;;;;17.20;99.90;;;;;;4960889;28;19933;-76
2022/12/09 11:08:24;;;;;;;;;;;17.30;99.90;;;;;;4955651;28;19933;-77
2022/12/09 11:10:51;;;;;;;;;;;17.30;99.90;;;;;;4962567;28;19926;-76
2022/12/09 11:13:20;;;;;;;;;;;17.70;99.90;;;;;;4960299;28;19937;-76
2022/12/09 11:15:52;;;;;;;;;;;17.90;99.90;;;;;;4957311;28;19931;-76
2022/12/09 11:18:20;;;;;;;;;;;17.20;99.90;;;;;;4955727;28;20321;-75
2022/12/09 11:20:54;;;;;;;;;;;15.10;99.90;;;;;;4951410;28;19938;-75
2022/12/09 11:23:21;;;;;;;;;;;13.10;99.90;;;;;;4948617;28;19927;-75
2022/12/09 11:25:54;;;;;;;;;;;10.90;99.90;;;;;;4955139;28;19926;-73
2022/12/09 11:28:25;;;;;;;;;;;11.10;99.90;;;;;;4978595;28;20338;-74
2022/12/09 11:30:54;;;;;;;;;;;12.80;99.90;;;;;;4954357;28;19981;-76
2022/12/09 11:33:24;;;;;;;;;;;13.70;99.90;;;;;;4958398;28;19926;-75
2022/12/09 11:35:53;;;;;;;;;;;13.30;99.90;;;;;;4959361;28;20021;-76
2022/12/09 11:38:24;;;;;;;;;;;12.30;99.90;;;;;;4963004;28;19926;-74
2022/12/09 11:41:01;;;;;;;;;;;11.90;99.90;;;;;;4956638;28;19927;-74
2022/12/09 11:43:33;;;;;;;;;;;12.40;99.90;;;;;;4961002;28;19926;-75
2022/12/09 11:46:00;;;;;;;;;;;14.10;99.90;;;;;;4960754;28;19926;-76
2022/12/09 11:48:28;;;;;;;;;;;14.30;99.90;;;;;;4958140;28;19958;-76
2022/12/09 11:50:56;;;;;;;;;;;15.20;99.90;;;;;;4957778;28;19926;-75
2022/12/09 11:53:27;;;;;;;;;;;14.40;99.90;;;;;;4964656;28;19926;-76
2022/12/09 11:55:57;;;;;;;;;;;13.00;99.90;;;;;;4953829;28;19926;-76
2022/12/09 11:58:27;;;;;;;;;;;12.10;99.90;;;;;;4955526;28;19927;-74
2022/12/09 12:00:56;;;;;;;;;;;11.10;99.90;;;;;;4963220;28;19933;-75
2022/12/09 12:03:26;;;;;;;;;;;10.20;99.90;;;;;;4954565;28;19927;-75
2022/12/09 12:05:54;;;;;;;;;;;9.60;99.90;;;;;;4964078;28;20397;-75
2022/12/09 12:08:23;;;;;;;;;;;9.40;99.90;;;;;;4953434;28;19926;-75
2022/12/09 12:10:51;;;;;;;;;;;9.00;99.90;;;;;;4959332;28;19926;-75
2022/12/09 12:13:21;;;;;;;;;;;8.50;99.90;;;;;;4958322;28;19934;-74
2022/12/09 12:15:52;;;;;;;;;;;7.90;99.90;;;;;;4953469;28;19941;-76
2022/12/09 12:18:20;;;;;;;;;;;7.60;99.90;;;;;;4948038;28;19934;-75
2022/12/09 12:20:53;;;;;;;;;;;7.40;99.90;;;;;;4956623;28;19934;-74
2022/12/09 12:23:27;;;;;;;;;;;7.30;99.90;;;;;;4961893;28;19933;-74
2022/12/09 12:25:59;;;;;;;;;;;7.20;99.90;;;;;;4956757;28;19930;-75
2022/12/09 12:28:43;;;;;;;;;;;7.00;99.90;;;;;;4955750;28;19926;-73
2022/12/09 12:31:16;;;;;;;;;;;6.70;99.90;;;;;;4953683;28;20342;-72
2022/12/09 12:33:51;;;;;;;;;;;6.60;99.90;;;;;;4959135;28;19926;-74
2022/12/09 12:36:24;;;;;;;;;;;6.30;99.90;;;;;;4957969;28;19927;-78
2022/12/09 12:38:59;;;;;;;;;;;6.20;99.90;;;;;;4958407;28;19934;-74
2022/12/09 12:41:32;;;;;;;;;;;6.00;99.90;;;;;;4957387;28;19934;-73
2022/12/09 12:46:54;;;;;;;;;;;5.90;99.90;;;;;;4960358;28;19923;-74
2022/12/09 12:49:38;;;;;;;;;;;5.90;99.90;;;;;;4963814;28;19933;-73
2022/12/09 12:52:11;;;;;;;;;;;5.90;99.90;;;;;;4956440;28;19933;-71
2022/12/09 12:54:42;;;;;;;;;;;5.90;99.90;;;;;;4967066;28;19927;-73
2022/12/09 12:57:13;;;;;;;;;;;5.80;99.90;;;;;;4957996;28;19930;-72
2022/12/09 12:59:47;;;;;;;;;;;5.80;99.90;;;;;;4960647;28;19926;-73
2022/12/09 13:02:20;;;;;;;;;;;5.80;99.90;;;;;;4958941;28;19933;-71
2022/12/09 13:04:48;;;;;;;;;;;5.70;99.90;;;;;;4962465;28;19934;-75
2022/12/09 13:07:17;;;;;;;;;;;5.70;99.90;;;;;;4954482;28;19945;-75
2022/12/09 13:09:46;;;;;;;;;;;5.40;99.90;;;;;;4950228;28;20460;-74
2022/12/09 13:12:15;;;;;;;;;;;5.40;99.90;;;;;;4954617;28;19927;-74
2022/12/09 13:14:48;;;;;;;;;;;5.20;99.90;;;;;;4960610;28;19977;-75
2022/12/09 13:17:14;;;;;;;;;;;5.10;99.90;;;;;;4960110;28;19942;-73
2022/12/09 13:19:44;;;;;;;;;;;5.00;99.90;;;;;;4957008;28;20034;-73
2022/12/09 13:22:16;;;;;;;;;;;5.00;99.90;;;;;;4961821;28;19927;-75
2022/12/09 13:24:47;;;;;;;;;;;4.90;99.90;;;;;;4960278;28;19934;-75
2022/12/09 13:27:17;;;;;;;;;;;4.80;99.90;;;;;;4958769;28;19974;-76
2022/12/09 13:29:46;;;;;;;;;;;4.70;99.90;;;;;;4960923;28;20289;-77
2022/12/09 13:32:28;;;;;;;;;;;4.60;99.90;;;;;;4959898;28;19958;-75
2022/12/09 13:35:01;;;;;;;;;;;4.60;99.90;;;;;;4960265;28;19934;-75
2022/12/09 13:37:31;;;;;;;;;;;4.60;99.90;;;;;;4957671;28;19926;-73
2022/12/09 13:39:58;;;;;;;;;;;4.60;99.90;;;;;;4957662;28;20510;-73
2022/12/09 13:42:55;;;;;;;;;;;4.50;99.90;;;;;;4964440;28;19965;-75
2022/12/09 13:45:31;;;;;;;;;;;4.50;99.90;;;;;;4953414;28;19930;-73
2022/12/09 13:48:00;;;;;;;;;;;4.50;99.90;;;;;;4966422;28;19930;-76
2022/12/09 13:50:32;;;;;;;;;;;4.50;99.90;;;;;;4959366;28;19926;-72
2022/12/09 13:53:00;;;;;;;;;;;4.60;99.90;;;;;;4954674;28;19937;-73
2022/12/09 13:55:33;;;;;;;;;;;4.70;99.90;;;;;;4965443;28;19926;-72
2022/12/09 13:58:18;;;;;;;;;;;4.80;99.90;;;;;;4952717;28;19981;-75
2022/12/09 14:00:58;;;;;;;;;;;4.80;99.90;;;;;;4954499;28;20003;-70
2022/12/09 14:03:27;;;;;;;;;;;4.80;99.90;;;;;;4953333;28;19941;-71
2022/12/09 14:05:57;;;;;;;;;;;4.70;99.90;;;;;;4968550;28;19930;-71
2022/12/09 14:08:25;;;;;;;;;;;4.60;99.90;;;;;;4973535;28;19934;-71
2022/12/09 14:10:52;;;;;;;;;;;4.50;99.90;;;;;;4960728;28;19933;-71
2022/12/09 14:13:27;;;;;;;;;;;4.50;99.90;;;;;;4964706;28;19930;-71
2022/12/09 14:16:24;;;;;;;;;;;4.60;99.90;;;;;;4963124;28;19981;-71
2022/12/09 14:18:50;;;;;;;;;;;4.60;99.90;;;;;;4879053;29;19935;-71
2022/12/09 14:21:23;;;;;;;;;;;4.60;99.90;;;;;;4948654;28;19934;-71
2022/12/09 14:24:20;;;;;;;;;;;4.60;99.90;;;;;;4958007;28;20480;-71
2022/12/09 14:27:07;;;;;;;;;;;4.60;99.90;;;;;;4867933;29;20030;-72
2022/12/09 14:29:52;;;;;;;;;;;4.50;99.90;;;;;;4954418;28;19961;-72
2022/12/09 14:32:20;;;;;;;;;;;4.40;99.90;;;;;;4964634;28;19985;-71
2022/12/09 14:34:47;;;;;;;;;;;4.30;99.90;;;;;;4961778;28;20353;-71
2022/12/09 14:37:34;;;;;;;;;;;4.30;99.90;;;;;;4961615;28;19926;-71
2022/12/09 14:40:04;;;;;;;;;;;4.30;99.90;;;;;;4953050;28;19969;-73
2022/12/09 14:42:40;;;;;;;;;;;4.20;99.90;;;;;;4957184;28;19926;-73
2022/12/09 14:45:14;;;;;;;;;;;4.20;99.90;;;;;;4959839;28;19926;-70
2022/12/09 14:47:43;;;;;;;;;;;4.20;99.90;;;;;;4956555;28;19937;-73
2022/12/09 14:50:13;;;;;;;;;;;4.20;99.90;;;;;;4960767;28;19993;-76
2022/12/09 14:52:50;;;;;;;;;;;4.10;99.90;;;;;;4962370;28;19940;-85
2022/12/09 14:55:17;;;;;;;;;;;4.10;99.90;;;;;;4959438;28;19927;-69
2022/12/09 14:57:45;;;;;;;;;;;4.00;99.90;;;;;;4960888;28;20024;-74
2022/12/09 15:00:25;;;;;;;;;;;4.00;99.90;;;;;;4959088;28;19926;-69
2022/12/09 15:02:53;;;;;;;;;;;3.90;99.90;;;;;;4957260;28;19945;-69
2022/12/09 15:05:20;;;;;;;;;;;3.80;99.90;;;;;;4958590;28;19931;-72
2022/12/09 15:07:47;;;;;;;;;;;3.70;99.90;;;;;;4960046;28;19941;-72
2022/12/09 15:10:20;;;;;;;;;;;3.70;99.90;;;;;;4958096;28;19934;-70
2022/12/09 15:12:48;;;;;;;;;;;3.60;99.90;;;;;;4962268;28;20389;-72
2022/12/09 15:15:18;;;;;;;;;;;3.50;99.90;;;;;;4960811;28;19941;-72
2022/12/09 15:17:46;;;;;;;;;;;3.50;99.90;;;;;;4956149;28;19926;-72
2022/12/09 15:20:20;;;;;;;;;;;3.40;99.90;;;;;;4959759;28;19927;-71
2022/12/09 15:22:50;;;;;;;;;;;3.30;99.90;;;;;;4960528;28;19934;-72
2022/12/09 15:25:19;;;;;;;;;;;3.30;99.90;;;;;;4949806;28;19935;-72
2022/12/09 15:27:54;;;;;;;;;;;3.20;99.90;;;;;;4961428;28;19933;-71
2022/12/09 15:30:22;;;;;;;;;;;3.10;99.90;;;;;;4961022;28;19933;-73
2022/12/09 15:32:48;;;;;;;;;;;3.10;99.90;;;;;;4958754;28;20012;-73
2022/12/09 15:35:16;;;;;;;;;;;3.10;99.90;;;;;;4962667;28;19930;-73
2022/12/09 15:37:44;;;;;;;;;;;3.10;99.90;;;;;;4964307;28;19927;-73
2022/12/09 15:40:12;;;;;;;;;;;3.00;99.90;;;;;;4963650;28;20396;-74
2022/12/09 15:42:42;;;;;;;;;;;3.00;99.90;;;;;;4967182;28;19934;-72
2022/12/09 15:45:11;;;;;;;;;;;3.00;99.90;;;;;;4962037;28;20314;-74
2022/12/09 15:47:39;;;;;;;;;;;3.00;99.90;;;;;;4961617;28;19926;-73
2022/12/09 15:50:13;;;;;;;;;;;2.90;99.90;;;;;;4959632;28;19934;-73
2022/12/09 15:52:42;;;;;;;;;;;2.90;99.90;;;;;;4961071;28;19926;-71
2022/12/09 15:55:11;;;;;;;;;;;3.00;99.90;;;;;;4962571;28;19930;-72
2022/12/09 15:57:38;;;;;;;;;;;2.90;99.90;;;;;;4963033;28;19933;-72
2022/12/09 16:00:07;;;;;;;;;;;2.90;99.90;;;;;;4961978;28;19926;-73
2022/12/09 16:02:34;;;;;;;;;;;2.90;99.90;;;;;;4996610;23;19930;-68
2022/12/09 16:05:03;;;;;;;;;;;2.90;99.90;;;;;;4983187;28;20378;-69
2022/12/09 16:07:32;;;;;;;;;;;2.90;99.90;;;;;;4983663;28;20031;-66
2022/12/09 16:10:05;;;;;;;;;;;2.80;99.90;;;;;;4977170;28;19941;-68
2022/12/09 16:12:33;;;;;;;;;;;2.80;99.90;;;;;;4981851;28;19938;-68
2022/12/09 16:15:00;;;;;;;;;;;2.80;99.90;;;;;;4981180;28;19996;-68
2022/12/09 16:17:29;;;;;;;;;;;2.90;99.90;;;;;;4984927;28;20464;-68
2022/12/09 16:19:55;;;;;;;;;;;2.80;99.90;;;;;;4982629;28;20404;-66
2022/12/09 16:22:24;;;;;;;;;;;2.80;99.90;;;;;;4974431;28;19927;-67
2022/12/09 16:24:52;;;;;;;;;;;2.80;99.90;;;;;;4981571;28;19930;-68
2022/12/09 16:27:21;;;;;;;;;;;2.70;99.90;;;;;;4980347;28;19929;-68
2022/12/09 16:29:49;;;;;;;;;;;2.70;99.90;;;;;;4983469;28;19926;-68
2022/12/09 16:32:18;;;;;;;;;;;2.70;99.90;;;;;;4984326;28;19929;-67
2022/12/09 16:34:48;;;;;;;;;;;2.70;99.90;;;;;;4980022;28;19926;-68
2022/12/09 16:37:22;;;;;;;;;;;2.70;99.90;;;;;;4982725;28;19937;-68
2022/12/09 16:39:49;;;;;;;;;;;2.70;99.90;;;;;;4979819;28;19926;-68
2022/12/09 16:42:20;;;;;;;;;;;2.70;99.90;;;;;;4982547;28;19977;-68
2022/12/09 16:44:47;;;;;;;;;;;2.70;99.90;;;;;;4983144;28;19941;-68
2022/12/09 16:47:15;;;;;;;;;;;2.60;99.90;;;;;;4983235;28;19926;-68
2022/12/09 16:49:42;;;;;;;;;;;2.70;99.90;;;;;;4980898;28;19937;-69
2022/12/09 16:52:14;;;;;;;;;;;2.60;99.90;;;;;;4981222;28;19926;-69
2022/12/09 16:54:42;;;;;;;;;;;2.60;99.90;;;;;;4982463;28;19926;-67
2022/12/09 16:57:11;;;;;;;;;;;2.60;99.90;;;;;;4981902;28;19981;-64
2022/12/09 16:59:38;;;;;;;;;;;2.60;99.90;;;;;;4979097;28;19933;-68
2022/12/09 17:02:09;;;;;;;;;;;2.60;99.90;;;;;;4979153;28;19933;-71
2022/12/09 17:04:35;;;;;;;;;;;2.60;99.90;;;;;;4981179;28;19980;-72
2022/12/09 17:07:02;;;;;;;;;;;2.60;99.90;;;;;;4983507;28;19925;-68
2022/12/09 17:09:30;;;;;;;;;;;2.60;99.90;;;;;;4976329;28;19930;-69
2022/12/09 17:11:57;;;;;;;;;;;2.50;99.90;;;;;;4979267;28;19957;-68
2022/12/09 17:14:24;;;;;;;;;;;2.50;99.90;;;;;;4979937;28;19926;-68
2022/12/09 17:16:51;;;;;;;;;;;2.50;99.90;;;;;;4986589;28;19930;-68
2022/12/09 17:19:21;;;;;;;;;;;2.50;99.90;;;;;;4975147;28;19997;-66
2022/12/09 17:21:50;;;;;;;;;;;2.50;99.90;;;;;;4984236;28;19926;-65
2022/12/09 17:24:17;;;;;;;;;;;2.50;99.90;;;;;;4982729;28;19929;-66
2022/12/09 17:26:45;;;;;;;;;;;2.50;99.90;;;;;;4982890;28;19926;-68
2022/12/09 17:29:12;;;;;;;;;;;2.50;99.90;;;;;;4984547;28;20421;-69
2022/12/09 17:31:38;;;;;;;;;;;2.50;99.90;;;;;;4983019;28;19933;-71
2022/12/09 17:34:05;;;;;;;;;;;2.50;99.90;;;;;;4980617;28;20324;-67
2022/12/09 17:36:32;;;;;;;;;;;2.50;99.90;;;;;;4978320;28;20298;-72
2022/12/09 17:39:00;;;;;;;;;;;2.50;99.90;;;;;;4983731;28;19925;-69
2022/12/09 17:41:26;;;;;;;;;;;2.50;99.90;;;;;;4977966;28;19926;-70
2022/12/09 17:43:56;;;;;;;;;;;2.50;99.90;;;;;;4983177;28;19936;-69
2022/12/09 17:46:23;;;;;;;;;;;2.50;99.90;;;;;;4983817;28;19925;-70
2022/12/09 17:48:50;;;;;;;;;;;2.50;99.90;;;;;;4979934;28;19933;-69
2022/12/09 17:51:17;;;;;;;;;;;2.50;99.90;;;;;;4981957;28;19941;-71
2022/12/09 17:53:45;;;;;;;;;;;2.50;99.90;;;;;;4973549;28;20472;-74
2022/12/09 17:56:12;;;;;;;;;;;2.50;99.90;;;;;;4983711;28;19984;-74
2022/12/09 17:58:39;;;;;;;;;;;2.50;99.90;;;;;;4976987;28;19937;-72
2022/12/09 18:01:14;;;;;;;;;;;2.50;99.90;;;;;;4978949;28;19926;-72
2022/12/09 18:03:41;;;;;;;;;;;2.40;99.90;;;;;;4981447;28;19933;-69
2022/12/09 18:06:08;;;;;;;;;;;2.40;99.90;;;;;;4982007;28;19930;-68
2022/12/09 18:08:35;;;;;;;;;;;2.50;99.90;;;;;;4978829;28;20021;-70
2022/12/09 18:11:02;;;;;;;;;;;2.40;99.90;;;;;;4977493;28;19929;-66
2022/12/09 18:13:29;;;;;;;;;;;2.40;99.90;;;;;;4979367;28;19930;-70
2022/12/09 18:15:56;;;;;;;;;;;2.40;99.90;;;;;;4981785;28;19926;-71
2022/12/09 18:18:24;;;;;;;;;;;2.40;99.90;;;;;;4982003;28;19926;-71
2022/12/09 18:20:51;;;;;;;;;;;2.40;99.90;;;;;;4981746;28;19933;-70
2022/12/09 18:23:18;;;;;;;;;;;2.30;99.90;;;;;;4972314;28;20350;-70
2022/12/09 18:25:45;;;;;;;;;;;2.30;99.90;;;;;;4978024;28;19930;-69
2022/12/09 18:28:12;;;;;;;;;;;2.20;99.90;;;;;;4976229;28;19927;-67
2022/12/09 18:30:39;;;;;;;;;;;2.20;99.90;;;;;;4981135;28;19980;-70
2022/12/09 18:33:05;;;;;;;;;;;2.20;99.90;;;;;;4976724;28;20021;-70
2022/12/09 18:35:34;;;;;;;;;;;2.20;99.90;;;;;;4982525;28;19980;-70
2022/12/09 18:38:02;;;;;;;;;;;2.20;99.90;;;;;;4973148;28;20275;-69